Terminal Aerodrome Forecast
Issued by NWS Sioux Falls, SD

Home | Current Version | Previous Version | Text Only | Print | Product List | Glossary On
Versions: 1 2 3 4 5 6 7 8 9 10 11 12 13
255
FTUS43 KFSD 220520
TAFHON
TAF
KHON 220520Z 2206/2306 15007KT P6SM SKC WS020/20040KT
     FM221100 15010KT P6SM SKC
     FM221800 18017G28KT P6SM FEW250
     FM230000 18015G24KT P6SM BKN200=

USA.gov is the U.S. government's official web portal to all federal, state and local government web resources and services.